Ms Jane — WDE9656 — position and weather

sailwx.info

Track history (hours):
 
Tides and Currents Weather Stations Pressure Air Temp Water Temp Dewpoint Dewpoint Depression Visibility Wind Speed Wind Dir Waves Ship Positions

Ms Jane

Owner: REC Marine, Galliano, LA. More information available from US FCC via Universal Licensing System and Coast Guard Vessel Documentation Center.

Last reported at 2018-Jan-12 06:24 UTC. Time now 2018-Jan-19 21:26 UTC.
Position N 29°38' W 092°16'.

Length 30 m; draft 3.2 m.

Type: Cargo ship. MMSI: 367419770.

Date/timePositionNaut miles runAvg speedWind from/ knotsBaromVisibWave heightAir tempDewpointWater temp
2018-Jan-12 06:24N 29°38' W 092°16'3 8.8
2018-Jan-12 06:00N 29°41' W 092°15'4 8.6
2018-Jan-12 05:30N 29°45' W 092°13'4 8.1
2018-Jan-12 05:00N 29°47' W 092°09'1 1.3
2018-Jan-12 04:30N 29°48' W 092°09'0 0.0
2018-Jan-12 04:00N 29°48' W 092°09'0 0.0
2018-Jan-12 03:30N 29°48' W 092°09'0 0.0
2018-Jan-12 03:00N 29°48' W 092°09'0 0.0
2018-Jan-12 02:30N 29°48' W 092°09'0 0.0
2018-Jan-12 02:00N 29°48' W 092°09'0 0.0
2018-Jan-12 01:30N 29°48' W 092°09'0 0.0
2018-Jan-12 01:00N 29°48' W 092°09'0 0.0
2018-Jan-12 00:30N 29°48' W 092°09'0 0.0
2018-Jan-12 00:00N 29°48' W 092°09'0 0.0
2018-Jan-11 23:30N 29°48' W 092°09'0 0.0
2018-Jan-11 23:00N 29°48' W 092°09'0 0.0
2018-Jan-11 22:30N 29°48' W 092°09'0 0.0
2018-Jan-11 22:00N 29°48' W 092°09'0 0.0
2018-Jan-11 21:30N 29°48' W 092°09'0 0.0
2018-Jan-11 21:00N 29°48' W 092°09'0 0.0
2018-Jan-11 20:30N 29°48' W 092°09'0 0.0
2018-Jan-11 20:00N 29°48' W 092°09'0 0.0
2018-Jan-11 19:30N 29°48' W 092°09'0 0.0
2018-Jan-11 19:00N 29°48' W 092°09'0 0.0
2018-Jan-11 18:30N 29°48' W 092°09'0 0.2
2018-Jan-11 18:00N 29°48' W 092°09'0 0.0
2018-Jan-11 17:30N 29°48' W 092°09'0 0.0
2018-Jan-11 17:00N 29°48' W 092°09'0 0.0
2018-Jan-11 16:30N 29°48' W 092°09'0 0.0
2018-Jan-11 16:00N 29°48' W 092°09'0 0.1
2018-Jan-11 15:30N 29°48' W 092°09'0 0.2
2018-Jan-11 15:00N 29°48' W 092°09'0 0.0
2018-Jan-11 14:30N 29°48' W 092°09'0 0.0
2018-Jan-11 14:00N 29°48' W 092°09'0 0.1
2018-Jan-11 13:30N 29°48' W 092°09'0 0.0
2018-Jan-11 12:59N 29°48' W 092°09'0 0.0
2018-Jan-11 12:28N 29°48' W 092°09'0 0.0
2018-Jan-11 12:00N 29°48' W 092°09'0 0.0
2018-Jan-11 11:25N 29°48' W 092°09'0 0.0
2018-Jan-11 10:59N 29°48' W 092°09'0 0.7
2018-Jan-11 10:30N 29°47' W 092°09'2 3.0
2018-Jan-11 10:00N 29°47' W 092°10'4 8.0
2018-Jan-11 09:30N 29°44' W 092°14'4 8.3
2018-Jan-11 08:58N 29°40' W 092°15'2 0.1
2018-Jan-09 09:32N 29°38' W 092°16'0 7.9
2018-Jan-09 09:30N 29°38' W 092°16'4 8.0
2018-Jan-09 09:00N 29°42' W 092°15'4 7.9
2018-Jan-09 08:30N 29°45' W 092°13'4 7.5
2018-Jan-09 08:00N 29°47' W 092°09'1 1.3
2018-Jan-09 07:30N 29°48' W 092°09'0 0.0
2018-Jan-09 07:00N 29°48' W 092°09'0 0.0
2018-Jan-09 06:30N 29°48' W 092°09'0 0.0
2018-Jan-09 06:00N 29°48' W 092°09'0 0.0
2018-Jan-09 05:30N 29°48' W 092°09'0 0.0
2018-Jan-09 05:00N 29°48' W 092°09'0 0.0
2018-Jan-09 04:30N 29°48' W 092°09'0 0.0
2018-Jan-09 04:00N 29°48' W 092°09'0 0.0
2018-Jan-09 03:30N 29°48' W 092°09'0 0.0
2018-Jan-09 03:00N 29°48' W 092°09'0 0.0
2018-Jan-09 02:30N 29°48' W 092°09'0 0.0
2018-Jan-09 02:00N 29°48' W 092°09'2 3.5
2018-Jan-09 01:30N 29°47' W 092°10'4 8.9
2018-Jan-09 01:00N 29°44' W 092°14'  
2018-Jan-06 07:18N 29°36' W 092°17'3 9.1
2018-Jan-06 07:00N 29°39' W 092°16'5 9.6
2018-Jan-06 06:31N 29°44' W 092°15'5 9.7
2018-Jan-06 06:01N 29°47' W 092°10'2 3.7
2018-Jan-06 05:30N 29°48' W 092°09'0 0.2
2018-Jan-06 05:00N 29°47' W 092°09'0 0.5
2018-Jan-06 04:31N 29°47' W 092°09'3 6.9
2018-Jan-06 04:01N 29°45' W 092°12'4 8.0
2018-Jan-06 03:31N 29°42' W 092°15'9 0.2
2018-Jan-04 09:31N 29°34' W 092°18'0 8.5
2018-Jan-04 09:29N 29°34' W 092°18'4 8.3
2018-Jan-04 09:00N 29°38' W 092°16'4 8.4
2018-Jan-04 08:30N 29°42' W 092°15'4 8.6
2018-Jan-04 08:01N 29°46' W 092°12'3 6.6
2018-Jan-04 07:30N 29°47' W 092°09'0 0.6
2018-Jan-04 07:01N 29°48' W 092°09'0 0.0
2018-Jan-04 06:31N 29°48' W 092°09'1 2.1
2018-Jan-04 06:01N 29°47' W 092°10'3 6.8
2018-Jan-04 05:30N 29°45' W 092°13'3 7.0
2018-Jan-04 05:01N 29°42' W 092°15'7 0.4
2018-Jan-03 09:46N 29°35' W 092°18'2 8.5
2018-Jan-03 09:29N 29°37' W 092°16'4 8.5
2018-Jan-03 09:01N 29°41' W 092°15'4 8.6
2018-Jan-03 08:30N 29°45' W 092°13'4 7.5
2018-Jan-03 08:01N 29°47' W 092°09'1 1.3
2018-Jan-03 07:31N 29°48' W 092°09'0 0.0
2018-Jan-03 07:01N 29°48' W 092°09'0 0.0
2018-Jan-03 06:31N 29°48' W 092°09'1 2.0
2018-Jan-03 06:00N 29°47' W 092°09'3 6.6
2018-Jan-03 05:31N 29°45' W 092°13'3 6.9
2018-Jan-03 05:01N 29°42' W 092°15'56 5.2
2018-Jan-02 18:13N 29°48' W 093°19'0 0.0
2018-Jan-02 11:04N 29°48' W 093°19'0 0.1
2018-Jan-02 10:58N 29°48' W 093°19'0 0.0
2018-Jan-02 10:25N 29°48' W 093°19'0 0.0
2018-Jan-02 09:49N 29°48' W 093°19'0 0.0
2018-Jan-02 09:28N 29°48' W 093°19'0 0.0
2018-Jan-02 07:57N 29°48' W 093°19'0 0.0
2018-Jan-02 07:30N 29°48' W 093°19'0 0.0
2018-Jan-02 07:00N 29°48' W 093°19'0 0.0
2018-Jan-02 06:29N 29°48' W 093°19'  
Track history (hours):
 
Tides and Currents Weather Stations Pressure Air Temp Water Temp Dewpoint Dewpoint Depression Visibility Wind Speed Wind Dir Waves Ship Positions

Ms Jane

Owner: REC Marine, Galliano, LA. More information available from US FCC via Universal Licensing System and Coast Guard Vessel Documentation Center.

Last reported at 2018-Jan-12 06:24 UTC. Time now 2018-Jan-19 21:26 UTC.
Position N 29°38' W 092°16'.

Length 30 m; draft 3.2 m.

Type: Cargo ship. MMSI: 367419770.

Date/timePositionNaut miles runAvg speedWind from/ knotsBaromVisibWave heightAir tempDewpointWater temp
2018-Jan-12 06:24N 29°38' W 092°16'3 8.8
2018-Jan-12 06:00N 29°41' W 092°15'4 8.6
2018-Jan-12 05:30N 29°45' W 092°13'4 8.1
2018-Jan-12 05:00N 29°47' W 092°09'1 1.3
2018-Jan-12 04:30N 29°48' W 092°09'0 0.0
2018-Jan-12 04:00N 29°48' W 092°09'0 0.0
2018-Jan-12 03:30N 29°48' W 092°09'0 0.0
2018-Jan-12 03:00N 29°48' W 092°09'0 0.0
2018-Jan-12 02:30N 29°48' W 092°09'0 0.0
2018-Jan-12 02:00N 29°48' W 092°09'0 0.0
2018-Jan-12 01:30N 29°48' W 092°09'0 0.0
2018-Jan-12 01:00N 29°48' W 092°09'0 0.0
2018-Jan-12 00:30N 29°48' W 092°09'0 0.0
2018-Jan-12 00:00N 29°48' W 092°09'0 0.0
2018-Jan-11 23:30N 29°48' W 092°09'0 0.0
2018-Jan-11 23:00N 29°48' W 092°09'0 0.0
2018-Jan-11 22:30N 29°48' W 092°09'0 0.0
2018-Jan-11 22:00N 29°48' W 092°09'0 0.0
2018-Jan-11 21:30N 29°48' W 092°09'0 0.0
2018-Jan-11 21:00N 29°48' W 092°09'0 0.0
2018-Jan-11 20:30N 29°48' W 092°09'0 0.0
2018-Jan-11 20:00N 29°48' W 092°09'0 0.0
2018-Jan-11 19:30N 29°48' W 092°09'0 0.0
2018-Jan-11 19:00N 29°48' W 092°09'0 0.0
2018-Jan-11 18:30N 29°48' W 092°09'0 0.2
2018-Jan-11 18:00N 29°48' W 092°09'0 0.0
2018-Jan-11 17:30N 29°48' W 092°09'0 0.0
2018-Jan-11 17:00N 29°48' W 092°09'0 0.0
2018-Jan-11 16:30N 29°48' W 092°09'0 0.0
2018-Jan-11 16:00N 29°48' W 092°09'0 0.1
2018-Jan-11 15:30N 29°48' W 092°09'0 0.2
2018-Jan-11 15:00N 29°48' W 092°09'0 0.0
2018-Jan-11 14:30N 29°48' W 092°09'0 0.0
2018-Jan-11 14:00N 29°48' W 092°09'0 0.1
2018-Jan-11 13:30N 29°48' W 092°09'0 0.0
2018-Jan-11 12:59N 29°48' W 092°09'0 0.0
2018-Jan-11 12:28N 29°48' W 092°09'0 0.0
2018-Jan-11 12:00N 29°48' W 092°09'0 0.0
2018-Jan-11 11:25N 29°48' W 092°09'0 0.0
2018-Jan-11 10:59N 29°48' W 092°09'0 0.7
2018-Jan-11 10:30N 29°47' W 092°09'2 3.0
2018-Jan-11 10:00N 29°47' W 092°10'4 8.0
2018-Jan-11 09:30N 29°44' W 092°14'4 8.3
2018-Jan-11 08:58N 29°40' W 092°15'2 0.1
2018-Jan-09 09:32N 29°38' W 092°16'0 7.9
2018-Jan-09 09:30N 29°38' W 092°16'4 8.0
2018-Jan-09 09:00N 29°42' W 092°15'4 7.9
2018-Jan-09 08:30N 29°45' W 092°13'4 7.5
2018-Jan-09 08:00N 29°47' W 092°09'1 1.3
2018-Jan-09 07:30N 29°48' W 092°09'0 0.0
2018-Jan-09 07:00N 29°48' W 092°09'0 0.0
2018-Jan-09 06:30N 29°48' W 092°09'0 0.0
2018-Jan-09 06:00N 29°48' W 092°09'0 0.0
2018-Jan-09 05:30N 29°48' W 092°09'0 0.0
2018-Jan-09 05:00N 29°48' W 092°09'0 0.0
2018-Jan-09 04:30N 29°48' W 092°09'0 0.0
2018-Jan-09 04:00N 29°48' W 092°09'0 0.0
2018-Jan-09 03:30N 29°48' W 092°09'0 0.0
2018-Jan-09 03:00N 29°48' W 092°09'0 0.0
2018-Jan-09 02:30N 29°48' W 092°09'0 0.0
2018-Jan-09 02:00N 29°48' W 092°09'2 3.5
2018-Jan-09 01:30N 29°47' W 092°10'4 8.9
2018-Jan-09 01:00N 29°44' W 092°14'  
2018-Jan-06 07:18N 29°36' W 092°17'3 9.1
2018-Jan-06 07:00N 29°39' W 092°16'5 9.6
2018-Jan-06 06:31N 29°44' W 092°15'5 9.7
2018-Jan-06 06:01N 29°47' W 092°10'2 3.7
2018-Jan-06 05:30N 29°48' W 092°09'0 0.2
2018-Jan-06 05:00N 29°47' W 092°09'0 0.5
2018-Jan-06 04:31N 29°47' W 092°09'3 6.9
2018-Jan-06 04:01N 29°45' W 092°12'4 8.0
2018-Jan-06 03:31N 29°42' W 092°15'9 0.2
2018-Jan-04 09:31N 29°34' W 092°18'0 8.5
2018-Jan-04 09:29N 29°34' W 092°18'4 8.3
2018-Jan-04 09:00N 29°38' W 092°16'4 8.4
2018-Jan-04 08:30N 29°42' W 092°15'4 8.6
2018-Jan-04 08:01N 29°46' W 092°12'3 6.6
2018-Jan-04 07:30N 29°47' W 092°09'0 0.6
2018-Jan-04 07:01N 29°48' W 092°09'0 0.0
2018-Jan-04 06:31N 29°48' W 092°09'1 2.1
2018-Jan-04 06:01N 29°47' W 092°10'3 6.8
2018-Jan-04 05:30N 29°45' W 092°13'3 7.0
2018-Jan-04 05:01N 29°42' W 092°15'7 0.4
2018-Jan-03 09:46N 29°35' W 092°18'2 8.5
2018-Jan-03 09:29N 29°37' W 092°16'4 8.5
2018-Jan-03 09:01N 29°41' W 092°15'4 8.6
2018-Jan-03 08:30N 29°45' W 092°13'4 7.5
2018-Jan-03 08:01N 29°47' W 092°09'1 1.3
2018-Jan-03 07:31N 29°48' W 092°09'0 0.0
2018-Jan-03 07:01N 29°48' W 092°09'0 0.0
2018-Jan-03 06:31N 29°48' W 092°09'1 2.0
2018-Jan-03 06:00N 29°47' W 092°09'3 6.6
2018-Jan-03 05:31N 29°45' W 092°13'3 6.9
2018-Jan-03 05:01N 29°42' W 092°15'56 5.2
2018-Jan-02 18:13N 29°48' W 093°19'0 0.0
2018-Jan-02 11:04N 29°48' W 093°19'0 0.1
2018-Jan-02 10:58N 29°48' W 093°19'0 0.0
2018-Jan-02 10:25N 29°48' W 093°19'0 0.0
2018-Jan-02 09:49N 29°48' W 093°19'0 0.0
2018-Jan-02 09:28N 29°48' W 093°19'0 0.0
2018-Jan-02 07:57N 29°48' W 093°19'0 0.0
2018-Jan-02 07:30N 29°48' W 093°19'0 0.0
2018-Jan-02 07:00N 29°48' W 093°19'0 0.0
2018-Jan-02 06:29N 29°48' W 093°19'  

Dump ship's entire track history